sensor_id;sensor_type;location;lat;lon;timestamp;temperature;humidity
19522;DHT22;9905;52.126;5.596;2022-10-19T00:00:44;7.60;99.90
19522;DHT22;9905;52.126;5.596;2022-10-19T00:03:11;7.50;99.90
19522;DHT22;9905;52.126;5.596;2022-10-19T00:05:37;7.50;99.90
19522;DHT22;9905;52.126;5.596;2022-10-19T00:08:05;7.50;99.90
19522;DHT22;9905;52.126;5.596;2022-10-19T00:10:32;7.50;99.90
19522;DHT22;9905;52.126;5.596;2022-10-19T00:12:59;7.40;99.90
19522;DHT22;9905;52.126;5.596;2022-10-19T00:15:26;7.40;99.90
19522;DHT22;9905;52.126;5.596;2022-10-19T00:17:53;7.40;99.90
19522;DHT22;9905;52.126;5.596;2022-10-19T00:20:21;7.40;99.90
19522;DHT22;9905;52.126;5.596;2022-10-19T00:22:48;7.30;99.90
19522;DHT22;9905;52.126;5.596;2022-10-19T00:25:17;7.30;99.90
19522;DHT22;9905;52.126;5.596;2022-10-19T00:27:44;7.30;99.90
19522;DHT22;9905;52.126;5.596;2022-10-19T00:30:10;7.30;99.90
19522;DHT22;9905;52.126;5.596;2022-10-19T00:32:37;7.30;99.90
19522;DHT22;9905;52.126;5.596;2022-10-19T00:35:04;7.20;99.90
19522;DHT22;9905;52.126;5.596;2022-10-19T00:37:31;7.20;99.90
19522;DHT22;9905;52.126;5.596;2022-10-19T00:39:58;7.20;99.90
19522;DHT22;9905;52.126;5.596;2022-10-19T00:42:26;7.20;99.90
19522;DHT22;9905;52.126;5.596;2022-10-19T00:44:59;7.10;99.90
19522;DHT22;9905;52.126;5.596;2022-10-19T00:47:26;7.10;99.90
19522;DHT22;9905;52.126;5.596;2022-10-19T00:49:54;7.20;99.90
19522;DHT22;9905;52.126;5.596;2022-10-19T00:52:23;7.10;99.90
19522;DHT22;9905;52.126;5.596;2022-10-19T00:54:51;7.10;99.90
19522;DHT22;9905;52.126;5.596;2022-10-19T00:57:19;7.10;99.90
19522;DHT22;9905;52.126;5.596;2022-10-19T00:59:48;7.10;99.90
19522;DHT22;9905;52.126;5.596;2022-10-19T01:02:15;7.10;99.90
19522;DHT22;9905;52.126;5.596;2022-10-19T01:04:45;7.10;99.90
19522;DHT22;9905;52.126;5.596;2022-10-19T01:07:13;7.10;99.90
19522;DHT22;9905;52.126;5.596;2022-10-19T01:09:40;7.10;99.90
19522;DHT22;9905;52.126;5.596;2022-10-19T01:12:14;7.00;99.90
19522;DHT22;9905;52.126;5.596;2022-10-19T01:14:57;7.00;99.90
19522;DHT22;9905;52.126;5.596;2022-10-19T01:17:34;7.00;99.90
19522;DHT22;9905;52.126;5.596;2022-10-19T01:20:23;6.90;99.90
19522;DHT22;9905;52.126;5.596;2022-10-19T01:23:04;6.90;99.90
19522;DHT22;9905;52.126;5.596;2022-10-19T01:25:43;6.90;99.90
19522;DHT22;9905;52.126;5.596;2022-10-19T01:28:24;6.80;99.90
19522;DHT22;9905;52.126;5.596;2022-10-19T01:31:01;6.80;99.90
19522;DHT22;9905;52.126;5.596;2022-10-19T01:33:38;6.80;99.90
19522;DHT22;9905;52.126;5.596;2022-10-19T01:36:15;6.80;99.90
19522;DHT22;9905;52.126;5.596;2022-10-19T01:38:50;6.70;99.90
19522;DHT22;9905;52.126;5.596;2022-10-19T01:41:20;6.70;99.90
19522;DHT22;9905;52.126;5.596;2022-10-19T01:43:54;6.70;99.90
19522;DHT22;9905;52.126;5.596;2022-10-19T01:46:27;6.60;99.90
19522;DHT22;9905;52.126;5.596;2022-10-19T01:49:00;6.60;99.90
19522;DHT22;9905;52.126;5.596;2022-10-19T01:51:31;6.60;99.90
19522;DHT22;9905;52.126;5.596;2022-10-19T01:54:02;6.60;99.90
19522;DHT22;9905;52.126;5.596;2022-10-19T01:56:31;6.60;99.90
19522;DHT22;9905;52.126;5.596;2022-10-19T01:59:02;6.60;99.90
19522;DHT22;9905;52.126;5.596;2022-10-19T02:01:33;6.60;99.90
19522;DHT22;9905;52.126;5.596;2022-10-19T02:04:01;6.60;99.90
19522;DHT22;9905;52.126;5.596;2022-10-19T02:06:28;6.60;99.90
19522;DHT22;9905;52.126;5.596;2022-10-19T02:08:55;6.60;99.90
19522;DHT22;9905;52.126;5.596;2022-10-19T02:11:22;6.50;99.90
19522;DHT22;9905;52.126;5.596;2022-10-19T02:13:53;6.50;99.90
19522;DHT22;9905;52.126;5.596;2022-10-19T02:16:25;6.50;99.90
19522;DHT22;9905;52.126;5.596;2022-10-19T02:18:55;6.50;99.90
19522;DHT22;9905;52.126;5.596;2022-10-19T02:21:22;6.50;99.90
19522;DHT22;9905;52.126;5.596;2022-10-19T02:23:49;6.50;99.90
19522;DHT22;9905;52.126;5.596;2022-10-19T02:26:16;6.40;99.90
19522;DHT22;9905;52.126;5.596;2022-10-19T02:28:43;6.50;99.90
19522;DHT22;9905;52.126;5.596;2022-10-19T02:31:10;6.50;99.90
19522;DHT22;9905;52.126;5.596;2022-10-19T02:33:37;6.50;99.90
19522;DHT22;9905;52.126;5.596;2022-10-19T02:36:06;6.40;99.90
19522;DHT22;9905;52.126;5.596;2022-10-19T02:38:33;6.40;99.90
19522;DHT22;9905;52.126;5.596;2022-10-19T02:41:05;6.40;99.90
19522;DHT22;9905;52.126;5.596;2022-10-19T02:43:34;6.30;99.90
19522;DHT22;9905;52.126;5.596;2022-10-19T02:46:05;6.30;99.90
19522;DHT22;9905;52.126;5.596;2022-10-19T02:48:34;6.30;99.90
19522;DHT22;9905;52.126;5.596;2022-10-19T02:51:02;6.30;99.90
19522;DHT22;9905;52.126;5.596;2022-10-19T02:53:30;6.20;99.90
19522;DHT22;9905;52.126;5.596;2022-10-19T02:55:56;6.20;99.90
19522;DHT22;9905;52.126;5.596;2022-10-19T02:58:23;6.20;99.90
19522;DHT22;9905;52.126;5.596;2022-10-19T03:00:50;6.20;99.90
19522;DHT22;9905;52.126;5.596;2022-10-19T03:03:16;6.20;99.90
19522;DHT22;9905;52.126;5.596;2022-10-19T03:05:43;6.30;99.90
19522;DHT22;9905;52.126;5.596;2022-10-19T03:08:10;6.20;99.90
19522;DHT22;9905;52.126;5.596;2022-10-19T03:10:38;6.20;99.90
19522;DHT22;9905;52.126;5.596;2022-10-19T03:13:04;6.20;99.90
19522;DHT22;9905;52.126;5.596;2022-10-19T03:15:31;6.20;99.90
19522;DHT22;9905;52.126;5.596;2022-10-19T03:17:58;6.10;99.90
19522;DHT22;9905;52.126;5.596;2022-10-19T03:20:25;6.10;99.90
19522;DHT22;9905;52.126;5.596;2022-10-19T03:22:51;6.10;99.90
19522;DHT22;9905;52.126;5.596;2022-10-19T03:25:18;6.10;99.90
19522;DHT22;9905;52.126;5.596;2022-10-19T03:27:46;6.10;99.90
19522;DHT22;9905;52.126;5.596;2022-10-19T03:30:13;6.10;99.90
19522;DHT22;9905;52.126;5.596;2022-10-19T03:32:40;6.10;99.90
19522;DHT22;9905;52.126;5.596;2022-10-19T03:35:07;6.10;99.90
19522;DHT22;9905;52.126;5.596;2022-10-19T03:37:33;6.00;99.90
19522;DHT22;9905;52.126;5.596;2022-10-19T03:40:00;6.00;99.90
19522;DHT22;9905;52.126;5.596;2022-10-19T03:42:27;6.00;99.90
19522;DHT22;9905;52.126;5.596;2022-10-19T03:44:55;6.00;99.90
19522;DHT22;9905;52.126;5.596;2022-10-19T03:47:22;6.00;99.90
19522;DHT22;9905;52.126;5.596;2022-10-19T03:49:49;5.90;99.90
19522;DHT22;9905;52.126;5.596;2022-10-19T03:52:16;5.90;99.90
19522;DHT22;9905;52.126;5.596;2022-10-19T03:54:43;5.80;99.90
19522;DHT22;9905;52.126;5.596;2022-10-19T03:57:10;5.80;99.90
19522;DHT22;9905;52.126;5.596;2022-10-19T03:59:37;5.80;99.90
19522;DHT22;9905;52.126;5.596;2022-10-19T04:02:05;5.80;99.90
19522;DHT22;9905;52.126;5.596;2022-10-19T04:04:32;5.80;99.90
19522;DHT22;9905;52.126;5.596;2022-10-19T04:06:59;5.80;99.90
19522;DHT22;9905;52.126;5.596;2022-10-19T04:09:25;5.70;99.90
19522;DHT22;9905;52.126;5.596;2022-10-19T04:11:52;5.80;99.90
19522;DHT22;9905;52.126;5.596;2022-10-19T04:14:20;5.70;99.90
19522;DHT22;9905;52.126;5.596;2022-10-19T04:16:47;5.70;99.90
19522;DHT22;9905;52.126;5.596;2022-10-19T04:19:15;5.70;99.90
19522;DHT22;9905;52.126;5.596;2022-10-19T04:21:42;5.60;99.90
19522;DHT22;9905;52.126;5.596;2022-10-19T04:24:11;5.60;99.90
19522;DHT22;9905;52.126;5.596;2022-10-19T04:26:40;5.60;99.90
19522;DHT22;9905;52.126;5.596;2022-10-19T04:29:07;5.60;99.90
19522;DHT22;9905;52.126;5.596;2022-10-19T04:31:35;5.60;99.90
19522;DHT22;9905;52.126;5.596;2022-10-19T04:34:02;5.60;99.90
19522;DHT22;9905;52.126;5.596;2022-10-19T04:36:30;5.50;99.90
19522;DHT22;9905;52.126;5.596;2022-10-19T04:38:57;5.50;99.90
19522;DHT22;9905;52.126;5.596;2022-10-19T04:41:23;5.50;99.90
19522;DHT22;9905;52.126;5.596;2022-10-19T04:43:54;5.50;99.90
19522;DHT22;9905;52.126;5.596;2022-10-19T04:46:22;5.40;99.90
19522;DHT22;9905;52.126;5.596;2022-10-19T04:48:49;5.40;99.90
19522;DHT22;9905;52.126;5.596;2022-10-19T04:51:16;5.40;99.90
19522;DHT22;9905;52.126;5.596;2022-10-19T04:53:46;5.40;99.90
19522;DHT22;9905;52.126;5.596;2022-10-19T04:56:15;5.40;99.90
19522;DHT22;9905;52.126;5.596;2022-10-19T04:58:42;5.30;99.90
19522;DHT22;9905;52.126;5.596;2022-10-19T05:01:10;5.30;99.90
19522;DHT22;9905;52.126;5.596;2022-10-19T05:03:37;5.30;99.90
19522;DHT22;9905;52.126;5.596;2022-10-19T05:06:05;5.30;99.90
19522;DHT22;9905;52.126;5.596;2022-10-19T05:08:32;5.30;99.90
19522;DHT22;9905;52.126;5.596;2022-10-19T05:11:06;5.30;99.90
19522;DHT22;9905;52.126;5.596;2022-10-19T05:13:33;5.30;99.90
19522;DHT22;9905;52.126;5.596;2022-10-19T05:16:02;5.20;99.90
19522;DHT22;9905;52.126;5.596;2022-10-19T05:18:30;5.20;99.90
19522;DHT22;9905;52.126;5.596;2022-10-19T05:21:01;5.20;99.90
19522;DHT22;9905;52.126;5.596;2022-10-19T05:23:28;5.20;99.90
19522;DHT22;9905;52.126;5.596;2022-10-19T05:25:59;5.30;99.90
19522;DHT22;9905;52.126;5.596;2022-10-19T05:28:27;5.30;99.90
19522;DHT22;9905;52.126;5.596;2022-10-19T05:30:54;5.30;99.90
19522;DHT22;9905;52.126;5.596;2022-10-19T05:33:21;5.30;99.90
19522;DHT22;9905;52.126;5.596;2022-10-19T05:35:47;5.30;99.90
19522;DHT22;9905;52.126;5.596;2022-10-19T05:38:14;5.30;99.90
19522;DHT22;9905;52.126;5.596;2022-10-19T05:40:44;5.30;99.90
19522;DHT22;9905;52.126;5.596;2022-10-19T05:43:10;5.20;99.90
19522;DHT22;9905;52.126;5.596;2022-10-19T05:45:38;5.30;99.90
19522;DHT22;9905;52.126;5.596;2022-10-19T05:48:05;5.20;99.90
19522;DHT22;9905;52.126;5.596;2022-10-19T05:50:32;5.20;99.90
19522;DHT22;9905;52.126;5.596;2022-10-19T05:52:58;5.20;99.90
19522;DHT22;9905;52.126;5.596;2022-10-19T05:55:25;5.20;99.90
19522;DHT22;9905;52.126;5.596;2022-10-19T05:57:52;5.20;99.90
19522;DHT22;9905;52.126;5.596;2022-10-19T06:00:19;5.20;99.90
19522;DHT22;9905;52.126;5.596;2022-10-19T06:02:47;5.20;99.90
19522;DHT22;9905;52.126;5.596;2022-10-19T06:05:13;5.10;99.90
19522;DHT22;9905;52.126;5.596;2022-10-19T06:07:40;5.10;99.90
19522;DHT22;9905;52.126;5.596;2022-10-19T06:10:08;5.10;99.90
19522;DHT22;9905;52.126;5.596;2022-10-19T06:12:35;5.10;99.90
19522;DHT22;9905;52.126;5.596;2022-10-19T06:15:01;5.10;99.90
19522;DHT22;9905;52.126;5.596;2022-10-19T06:17:28;5.00;99.90
19522;DHT22;9905;52.126;5.596;2022-10-19T06:19:56;5.00;99.90
19522;DHT22;9905;52.126;5.596;2022-10-19T06:22:23;5.10;99.90
19522;DHT22;9905;52.126;5.596;2022-10-19T06:24:49;5.10;99.90
19522;DHT22;9905;52.126;5.596;2022-10-19T06:27:16;5.00;99.90
19522;DHT22;9905;52.126;5.596;2022-10-19T06:29:43;5.10;99.90
19522;DHT22;9905;52.126;5.596;2022-10-19T06:32:10;5.00;99.90
19522;DHT22;9905;52.126;5.596;2022-10-19T06:34:36;5.10;99.90
19522;DHT22;9905;52.126;5.596;2022-10-19T06:37:04;5.10;99.90
19522;DHT22;9905;52.126;5.596;2022-10-19T06:39:31;5.10;99.90
19522;DHT22;9905;52.126;5.596;2022-10-19T06:41:58;5.10;99.90
19522;DHT22;9905;52.126;5.596;2022-10-19T06:44:24;5.10;99.90
19522;DHT22;9905;52.126;5.596;2022-10-19T06:46:51;5.10;99.90
19522;DHT22;9905;52.126;5.596;2022-10-19T06:49:18;5.20;99.90
19522;DHT22;9905;52.126;5.596;2022-10-19T06:51:45;5.20;99.90
19522;DHT22;9905;52.126;5.596;2022-10-19T06:54:13;5.20;99.90
19522;DHT22;9905;52.126;5.596;2022-10-19T06:56:39;5.30;99.90
19522;DHT22;9905;52.126;5.596;2022-10-19T06:59:06;5.30;99.90
19522;DHT22;9905;52.126;5.596;2022-10-19T07:01:33;5.30;99.90
19522;DHT22;9905;52.126;5.596;2022-10-19T07:03:59;5.30;99.90
19522;DHT22;9905;52.126;5.596;2022-10-19T07:06:27;5.40;99.90
19522;DHT22;9905;52.126;5.596;2022-10-19T07:08:54;5.50;99.90
19522;DHT22;9905;52.126;5.596;2022-10-19T07:11:22;5.50;99.90
19522;DHT22;9905;52.126;5.596;2022-10-19T07:13:50;5.60;99.90
19522;DHT22;9905;52.126;5.596;2022-10-19T07:16:18;5.60;99.90
19522;DHT22;9905;52.126;5.596;2022-10-19T07:18:45;5.70;99.90
19522;DHT22;9905;52.126;5.596;2022-10-19T07:21:14;5.80;99.90
19522;DHT22;9905;52.126;5.596;2022-10-19T07:23:42;6.10;99.90
19522;DHT22;9905;52.126;5.596;2022-10-19T07:26:12;6.20;99.90
19522;DHT22;9905;52.126;5.596;2022-10-19T07:28:45;6.20;99.90
19522;DHT22;9905;52.126;5.596;2022-10-19T07:31:14;6.20;99.90
19522;DHT22;9905;52.126;5.596;2022-10-19T07:33:42;6.20;99.90
19522;DHT22;9905;52.126;5.596;2022-10-19T07:36:10;6.30;99.90
19522;DHT22;9905;52.126;5.596;2022-10-19T07:38:38;6.30;99.90
19522;DHT22;9905;52.126;5.596;2022-10-19T07:41:06;6.40;99.90
19522;DHT22;9905;52.126;5.596;2022-10-19T07:43:33;6.50;99.90
19522;DHT22;9905;52.126;5.596;2022-10-19T07:46:03;6.60;99.90
19522;DHT22;9905;52.126;5.596;2022-10-19T07:48:30;6.70;99.90
19522;DHT22;9905;52.126;5.596;2022-10-19T07:50:59;6.80;99.90
19522;DHT22;9905;52.126;5.596;2022-10-19T07:53:26;6.90;99.90
19522;DHT22;9905;52.126;5.596;2022-10-19T07:55:52;6.90;99.90
19522;DHT22;9905;52.126;5.596;2022-10-19T07:58:19;7.00;99.90
19522;DHT22;9905;52.126;5.596;2022-10-19T08:00:46;7.10;99.90
19522;DHT22;9905;52.126;5.596;2022-10-19T08:03:14;7.20;99.90
19522;DHT22;9905;52.126;5.596;2022-10-19T08:05:40;7.30;99.90
19522;DHT22;9905;52.126;5.596;2022-10-19T08:08:07;7.40;99.90
19522;DHT22;9905;52.126;5.596;2022-10-19T08:10:34;7.50;99.90
19522;DHT22;9905;52.126;5.596;2022-10-19T08:13:01;7.60;99.90
19522;DHT22;9905;52.126;5.596;2022-10-19T08:15:28;7.80;99.90
19522;DHT22;9905;52.126;5.596;2022-10-19T08:17:55;7.90;99.90
19522;DHT22;9905;52.126;5.596;2022-10-19T08:20:23;8.00;99.90
19522;DHT22;9905;52.126;5.596;2022-10-19T08:22:49;8.10;99.90
19522;DHT22;9905;52.126;5.596;2022-10-19T08:25:16;8.30;99.90
19522;DHT22;9905;52.126;5.596;2022-10-19T08:27:43;8.50;99.90
19522;DHT22;9905;52.126;5.596;2022-10-19T08:30:10;8.70;99.90
19522;DHT22;9905;52.126;5.596;2022-10-19T08:32:37;8.80;99.90
19522;DHT22;9905;52.126;5.596;2022-10-19T08:35:04;9.00;99.90
19522;DHT22;9905;52.126;5.596;2022-10-19T08:37:32;9.10;99.90
19522;DHT22;9905;52.126;5.596;2022-10-19T08:39:59;9.30;99.90
19522;DHT22;9905;52.126;5.596;2022-10-19T08:42:30;9.50;99.90
19522;DHT22;9905;52.126;5.596;2022-10-19T08:45:25;9.60;99.90
19522;DHT22;9905;52.126;5.596;2022-10-19T08:48:02;9.80;99.90
19522;DHT22;9905;52.126;5.596;2022-10-19T08:50:36;9.90;99.90
19522;DHT22;9905;52.126;5.596;2022-10-19T08:53:07;10.10;99.90
19522;DHT22;9905;52.126;5.596;2022-10-19T08:55:51;10.30;99.90
19522;DHT22;9905;52.126;5.596;2022-10-19T08:58:40;10.40;99.90
19522;DHT22;9905;52.126;5.596;2022-10-19T09:01:14;10.50;99.90
19522;DHT22;9905;52.126;5.596;2022-10-19T09:03:45;10.70;99.90
19522;DHT22;9905;52.126;5.596;2022-10-19T09:06:19;10.80;99.90
19522;DHT22;9905;52.126;5.596;2022-10-19T09:08:50;10.90;99.90
19522;DHT22;9905;52.126;5.596;2022-10-19T09:11:19;11.00;99.90
19522;DHT22;9905;52.126;5.596;2022-10-19T09:13:48;11.10;99.90
19522;DHT22;9905;52.126;5.596;2022-10-19T09:16:17;11.20;99.90
19522;DHT22;9905;52.126;5.596;2022-10-19T09:18:45;11.40;99.90
19522;DHT22;9905;52.126;5.596;2022-10-19T09:21:15;11.40;99.90
19522;DHT22;9905;52.126;5.596;2022-10-19T09:23:47;11.50;99.90
19522;DHT22;9905;52.126;5.596;2022-10-19T09:26:19;11.60;99.90
19522;DHT22;9905;52.126;5.596;2022-10-19T09:28:51;11.70;99.90
19522;DHT22;9905;52.126;5.596;2022-10-19T09:31:23;11.80;99.90
19522;DHT22;9905;52.126;5.596;2022-10-19T09:33:54;11.90;99.90
19522;DHT22;9905;52.126;5.596;2022-10-19T09:36:23;12.00;99.90
19522;DHT22;9905;52.126;5.596;2022-10-19T09:38:55;12.00;99.90
19522;DHT22;9905;52.126;5.596;2022-10-19T09:41:23;12.10;99.90
19522;DHT22;9905;52.126;5.596;2022-10-19T09:43:52;12.20;99.90
19522;DHT22;9905;52.126;5.596;2022-10-19T09:46:27;12.30;99.90
19522;DHT22;9905;52.126;5.596;2022-10-19T09:48:58;12.40;99.90
19522;DHT22;9905;52.126;5.596;2022-10-19T09:51:39;12.50;99.90
19522;DHT22;9905;52.126;5.596;2022-10-19T09:54:20;12.60;99.90
19522;DHT22;9905;52.126;5.596;2022-10-19T09:56:54;12.70;99.90
19522;DHT22;9905;52.126;5.596;2022-10-19T09:59:23;12.80;99.90
19522;DHT22;9905;52.126;5.596;2022-10-19T10:02:01;12.80;99.90
19522;DHT22;9905;52.126;5.596;2022-10-19T10:04:29;12.80;99.90
19522;DHT22;9905;52.126;5.596;2022-10-19T10:06:56;12.90;99.90
19522;DHT22;9905;52.126;5.596;2022-10-19T10:09:25;12.90;99.90
19522;DHT22;9905;52.126;5.596;2022-10-19T10:11:55;13.00;99.90
19522;DHT22;9905;52.126;5.596;2022-10-19T10:14:26;13.10;99.90
19522;DHT22;9905;52.126;5.596;2022-10-19T10:16:54;13.10;99.90
19522;DHT22;9905;52.126;5.596;2022-10-19T10:19:26;13.20;99.90
19522;DHT22;9905;52.126;5.596;2022-10-19T10:21:54;13.20;99.90
19522;DHT22;9905;52.126;5.596;2022-10-19T10:24:24;13.20;99.90
19522;DHT22;9905;52.126;5.596;2022-10-19T10:26:54;13.30;99.90
19522;DHT22;9905;52.126;5.596;2022-10-19T10:29:22;13.30;99.90
19522;DHT22;9905;52.126;5.596;2022-10-19T10:31:51;13.30;99.90
19522;DHT22;9905;52.126;5.596;2022-10-19T10:34:31;13.40;99.90
19522;DHT22;9905;52.126;5.596;2022-10-19T10:36:58;13.50;99.90
19522;DHT22;9905;52.126;5.596;2022-10-19T10:39:26;13.50;99.90
19522;DHT22;9905;52.126;5.596;2022-10-19T10:41:58;13.60;99.90
19522;DHT22;9905;52.126;5.596;2022-10-19T10:44:27;13.60;99.90
19522;DHT22;9905;52.126;5.596;2022-10-19T10:46:57;13.70;99.90
19522;DHT22;9905;52.126;5.596;2022-10-19T10:49:27;13.70;99.90
19522;DHT22;9905;52.126;5.596;2022-10-19T10:51:56;13.70;99.90
19522;DHT22;9905;52.126;5.596;2022-10-19T10:54:24;13.80;99.90
19522;DHT22;9905;52.126;5.596;2022-10-19T10:57:03;13.90;99.90
19522;DHT22;9905;52.126;5.596;2022-10-19T10:59:34;13.90;99.90
19522;DHT22;9905;52.126;5.596;2022-10-19T11:02:11;14.00;99.90
19522;DHT22;9905;52.126;5.596;2022-10-19T11:04:43;14.00;99.90
19522;DHT22;9905;52.126;5.596;2022-10-19T11:07:16;14.00;99.90
19522;DHT22;9905;52.126;5.596;2022-10-19T11:09:49;14.00;99.90
19522;DHT22;9905;52.126;5.596;2022-10-19T11:12:27;14.00;99.90
19522;DHT22;9905;52.126;5.596;2022-10-19T11:14:59;14.00;99.90
19522;DHT22;9905;52.126;5.596;2022-10-19T11:17:31;14.10;99.90
19522;DHT22;9905;52.126;5.596;2022-10-19T11:19:58;14.10;99.90
19522;DHT22;9905;52.126;5.596;2022-10-19T11:22:27;14.20;99.90
19522;DHT22;9905;52.126;5.596;2022-10-19T11:25:04;14.20;99.90
19522;DHT22;9905;52.126;5.596;2022-10-19T11:27:44;14.30;99.90
19522;DHT22;9905;52.126;5.596;2022-10-19T11:30:15;14.40;99.90
19522;DHT22;9905;52.126;5.596;2022-10-19T11:32:52;14.40;99.90
19522;DHT22;9905;52.126;5.596;2022-10-19T11:35:38;14.40;99.90
19522;DHT22;9905;52.126;5.596;2022-10-19T11:38:19;14.40;99.90
19522;DHT22;9905;52.126;5.596;2022-10-19T11:40:55;14.60;99.90
19522;DHT22;9905;52.126;5.596;2022-10-19T11:43:30;14.60;99.90
19522;DHT22;9905;52.126;5.596;2022-10-19T11:46:04;14.60;99.90
19522;DHT22;9905;52.126;5.596;2022-10-19T11:48:48;14.70;99.90
19522;DHT22;9905;52.126;5.596;2022-10-19T11:51:21;14.80;99.90
19522;DHT22;9905;52.126;5.596;2022-10-19T11:54:00;14.90;99.90
19522;DHT22;9905;52.126;5.596;2022-10-19T11:56:32;15.00;99.90
19522;DHT22;9905;52.126;5.596;2022-10-19T11:59:06;15.00;99.90
19522;DHT22;9905;52.126;5.596;2022-10-19T12:01:46;15.10;99.90
19522;DHT22;9905;52.126;5.596;2022-10-19T12:04:38;15.20;99.90
19522;DHT22;9905;52.126;5.596;2022-10-19T12:07:19;15.40;99.90
19522;DHT22;9905;52.126;5.596;2022-10-19T12:09:54;15.40;99.90
19522;DHT22;9905;52.126;5.596;2022-10-19T12:12:28;15.40;99.90
19522;DHT22;9905;52.126;5.596;2022-10-19T12:15:10;15.40;99.90
19522;DHT22;9905;52.126;5.596;2022-10-19T12:17:40;15.50;99.90
19522;DHT22;9905;52.126;5.596;2022-10-19T12:20:19;15.60;99.90
19522;DHT22;9905;52.126;5.596;2022-10-19T12:22:48;15.70;99.90
19522;DHT22;9905;52.126;5.596;2022-10-19T12:25:16;15.70;99.90
19522;DHT22;9905;52.126;5.596;2022-10-19T12:27:43;15.60;99.90
19522;DHT22;9905;52.126;5.596;2022-10-19T12:30:15;15.60;99.90
19522;DHT22;9905;52.126;5.596;2022-10-19T12:32:51;15.60;99.90
19522;DHT22;9905;52.126;5.596;2022-10-19T12:35:30;15.60;99.90
19522;DHT22;9905;52.126;5.596;2022-10-19T12:38:03;15.60;99.90
19522;DHT22;9905;52.126;5.596;2022-10-19T12:40:36;15.70;99.90
19522;DHT22;9905;52.126;5.596;2022-10-19T12:43:07;15.80;99.90
19522;DHT22;9905;52.126;5.596;2022-10-19T12:45:40;15.80;99.90
19522;DHT22;9905;52.126;5.596;2022-10-19T12:48:20;15.80;99.90
19522;DHT22;9905;52.126;5.596;2022-10-19T12:51:06;15.90;99.90
19522;DHT22;9905;52.126;5.596;2022-10-19T12:53:35;16.00;99.90
19522;DHT22;9905;52.126;5.596;2022-10-19T12:56:06;16.00;99.90
19522;DHT22;9905;52.126;5.596;2022-10-19T12:58:36;15.90;99.90
19522;DHT22;9905;52.126;5.596;2022-10-19T13:01:06;15.90;99.90
19522;DHT22;9905;52.126;5.596;2022-10-19T13:03:36;16.00;99.90
19522;DHT22;9905;52.126;5.596;2022-10-19T13:06:09;16.00;99.90
19522;DHT22;9905;52.126;5.596;2022-10-19T13:08:41;16.00;99.90
19522;DHT22;9905;52.126;5.596;2022-10-19T13:11:10;16.10;99.90
19522;DHT22;9905;52.126;5.596;2022-10-19T13:14:04;16.10;99.90
19522;DHT22;9905;52.126;5.596;2022-10-19T13:16:54;16.00;99.90
19522;DHT22;9905;52.126;5.596;2022-10-19T13:19:22;16.00;99.90
19522;DHT22;9905;52.126;5.596;2022-10-19T13:31:02;15.90;99.90
19522;DHT22;9905;52.126;5.596;2022-10-19T13:33:49;15.90;99.90
19522;DHT22;9905;52.126;5.596;2022-10-19T13:36:17;15.90;99.90
19522;DHT22;9905;52.126;5.596;2022-10-19T13:38:45;15.90;99.90
19522;DHT22;9905;52.126;5.596;2022-10-19T13:41:16;16.00;99.90
19522;DHT22;9905;52.126;5.596;2022-10-19T13:44:02;16.00;99.90
19522;DHT22;9905;52.126;5.596;2022-10-19T13:46:51;16.00;99.90
19522;DHT22;9905;52.126;5.596;2022-10-19T13:49:35;16.00;99.90
19522;DHT22;9905;52.126;5.596;2022-10-19T13:52:24;16.00;99.90
19522;DHT22;9905;52.126;5.596;2022-10-19T13:55:22;16.00;99.90
19522;DHT22;9905;52.126;5.596;2022-10-19T13:58:04;16.00;99.90
19522;DHT22;9905;52.126;5.596;2022-10-19T14:00:54;16.10;99.90
19522;DHT22;9905;52.126;5.596;2022-10-19T14:03:30;16.00;99.90
19522;DHT22;9905;52.126;5.596;2022-10-19T14:06:11;16.00;99.90
19522;DHT22;9905;52.126;5.596;2022-10-19T14:09:13;15.90;99.90
19522;DHT22;9905;52.126;5.596;2022-10-19T14:11:44;16.00;99.90
19522;DHT22;9905;52.126;5.596;2022-10-19T14:14:15;16.00;99.90
19522;DHT22;9905;52.126;5.596;2022-10-19T14:16:48;16.00;99.90
19522;DHT22;9905;52.126;5.596;2022-10-19T14:19:21;16.10;99.90
19522;DHT22;9905;52.126;5.596;2022-10-19T14:21:53;16.10;99.90
19522;DHT22;9905;52.126;5.596;2022-10-19T14:24:30;16.20;99.90
19522;DHT22;9905;52.126;5.596;2022-10-19T14:26:58;16.20;99.90
19522;DHT22;9905;52.126;5.596;2022-10-19T14:29:27;16.10;99.90
19522;DHT22;9905;52.126;5.596;2022-10-19T14:31:54;16.00;99.90
19522;DHT22;9905;52.126;5.596;2022-10-19T14:34:21;16.00;99.90
19522;DHT22;9905;52.126;5.596;2022-10-19T14:36:48;15.90;99.90
19522;DHT22;9905;52.126;5.596;2022-10-19T14:39:25;15.90;99.90
19522;DHT22;9905;52.126;5.596;2022-10-19T14:41:54;15.90;99.90
19522;DHT22;9905;52.126;5.596;2022-10-19T14:44:37;15.80;99.90
19522;DHT22;9905;52.126;5.596;2022-10-19T14:47:19;15.80;99.90
19522;DHT22;9905;52.126;5.596;2022-10-19T14:49:47;15.80;99.90
19522;DHT22;9905;52.126;5.596;2022-10-19T14:52:19;15.70;99.90
19522;DHT22;9905;52.126;5.596;2022-10-19T14:54:51;15.70;99.90
19522;DHT22;9905;52.126;5.596;2022-10-19T14:57:24;15.70;99.90
19522;DHT22;9905;52.126;5.596;2022-10-19T14:59:54;15.70;99.90
19522;DHT22;9905;52.126;5.596;2022-10-19T15:02:24;15.60;99.90
19522;DHT22;9905;52.126;5.596;2022-10-19T15:04:52;15.60;99.90
19522;DHT22;9905;52.126;5.596;2022-10-19T15:07:24;15.60;99.90
19522;DHT22;9905;52.126;5.596;2022-10-19T15:09:55;15.60;99.90
19522;DHT22;9905;52.126;5.596;2022-10-19T15:12:27;15.50;99.90
19522;DHT22;9905;52.126;5.596;2022-10-19T15:14:55;15.50;99.90
19522;DHT22;9905;52.126;5.596;2022-10-19T15:17:25;15.40;99.90
19522;DHT22;9905;52.126;5.596;2022-10-19T15:19:53;15.40;99.90
19522;DHT22;9905;52.126;5.596;2022-10-19T15:22:22;15.40;99.90
19522;DHT22;9905;52.126;5.596;2022-10-19T15:24:59;15.40;99.90
19522;DHT22;9905;52.126;5.596;2022-10-19T15:27:31;15.40;99.90
19522;DHT22;9905;52.126;5.596;2022-10-19T15:29:59;15.30;99.90
19522;DHT22;9905;52.126;5.596;2022-10-19T15:32:30;15.30;99.90
19522;DHT22;9905;52.126;5.596;2022-10-19T15:34:59;15.20;99.90
19522;DHT22;9905;52.126;5.596;2022-10-19T15:37:33;15.20;99.90
19522;DHT22;9905;52.126;5.596;2022-10-19T15:40:08;15.20;99.90
19522;DHT22;9905;52.126;5.596;2022-10-19T15:42:37;15.10;99.90
19522;DHT22;9905;52.126;5.596;2022-10-19T15:45:26;15.10;99.90
19522;DHT22;9905;52.126;5.596;2022-10-19T15:48:24;15.00;99.90
19522;DHT22;9905;52.126;5.596;2022-10-19T15:50:52;14.90;99.90
19522;DHT22;9905;52.126;5.596;2022-10-19T15:53:20;14.80;99.90
19522;DHT22;9905;52.126;5.596;2022-10-19T15:55:48;14.70;99.90
19522;DHT22;9905;52.126;5.596;2022-10-19T15:58:15;14.60;99.90
19522;DHT22;9905;52.126;5.596;2022-10-19T16:00:42;14.60;99.90
19522;DHT22;9905;52.126;5.596;2022-10-19T16:03:09;14.50;99.90
19522;DHT22;9905;52.126;5.596;2022-10-19T16:05:36;14.50;99.90
19522;DHT22;9905;52.126;5.596;2022-10-19T16:08:04;14.40;99.90
19522;DHT22;9905;52.126;5.596;2022-10-19T16:10:31;14.30;99.90
19522;DHT22;9905;52.126;5.596;2022-10-19T16:12:59;14.20;99.90
19522;DHT22;9905;52.126;5.596;2022-10-19T16:15:26;14.10;99.90
19522;DHT22;9905;52.126;5.596;2022-10-19T16:17:54;14.00;99.90
19522;DHT22;9905;52.126;5.596;2022-10-19T16:20:22;13.90;99.90
19522;DHT22;9905;52.126;5.596;2022-10-19T16:22:50;13.90;99.90
19522;DHT22;9905;52.126;5.596;2022-10-19T16:25:17;13.80;99.90